Time;durP1;ratioP1;P1;durP2;ratioP2;P2;SDS_P1;SDS_P2;PMS_P1;PMS_P2;Temp;Humidity;BMP_temperature;BMP_pressure;BME280_temperature;BME280_humidity;BME280_pressure;Samples;Min_cycle;Max_cycle;Signal;HPM_P1;HPM_P2
2024/01/21 00:00:46;;;;;;;2.50;2.40;;;18.30;34.20;;;;;;5034892;28;20848;-70
2024/01/21 00:03:12;;;;;;;2.87;2.67;;;18.30;34.30;;;;;;5041022;28;20585;-71
2024/01/21 00:05:38;;;;;;;2.70;2.50;;;18.30;34.30;;;;;;5021920;28;20226;-71
2024/01/21 00:08:04;;;;;;;2.03;1.93;;;18.30;34.30;;;;;;5027284;28;20227;-71
2024/01/21 00:10:29;;;;;;;2.20;2.10;;;18.30;34.20;;;;;;5021540;28;20227;-71
2024/01/21 00:12:55;;;;;;;2.13;2.03;;;18.30;34.20;;;;;;5040564;28;20233;-71
2024/01/21 00:15:22;;;;;;;2.37;2.27;;;18.30;34.30;;;;;;5025629;28;20230;-71
2024/01/21 00:17:48;;;;;;;2.13;2.03;;;18.30;34.20;;;;;;5029910;28;20233;-71
2024/01/21 00:20:13;;;;;;;2.30;2.20;;;18.30;34.20;;;;;;5025867;28;20911;-70
2024/01/21 00:22:40;;;;;;;2.60;2.40;;;18.30;34.20;;;;;;5023795;28;20255;-70
2024/01/21 00:25:06;;;;;;;1.93;1.83;;;18.30;34.20;;;;;;5028742;28;20681;-70
2024/01/21 00:27:32;;;;;;;2.43;2.33;;;18.30;34.20;;;;;;5039681;28;20442;-70
2024/01/21 00:29:57;;;;;;;2.30;2.20;;;18.30;34.20;;;;;;5023888;28;20441;-71
2024/01/21 00:32:23;;;;;;;1.90;1.80;;;18.30;34.20;;;;;;5035644;28;20233;-70
2024/01/21 00:34:48;;;;;;;2.07;1.97;;;18.30;34.20;;;;;;5021405;28;20561;-70
2024/01/21 00:37:14;;;;;;;2.20;2.10;;;18.30;34.20;;;;;;5022991;28;21108;-70
2024/01/21 00:39:39;;;;;;;2.27;2.17;;;18.30;34.20;;;;;;5030751;28;20223;-69
2024/01/21 00:42:05;;;;;;;2.30;2.20;;;18.30;34.20;;;;;;5024804;28;20218;-70
2024/01/21 00:44:30;;;;;;;2.40;2.20;;;18.30;34.20;;;;;;5039360;28;20222;-71
2024/01/21 00:46:56;;;;;;;2.30;2.10;;;18.30;34.20;;;;;;5032251;28;20238;-70
2024/01/21 00:49:21;;;;;;;2.43;2.10;;;18.30;34.20;;;;;;5023448;28;20234;-70
2024/01/21 00:51:47;;;;;;;4.17;2.60;;;18.30;34.20;;;;;;5029343;28;20697;-71
2024/01/21 00:54:12;;;;;;;2.10;2.00;;;18.30;34.20;;;;;;5023190;28;20290;-70
2024/01/21 00:56:38;;;;;;;2.03;1.93;;;18.30;34.10;;;;;;5027898;28;20301;-70
2024/01/21 00:59:04;;;;;;;2.23;2.13;;;18.30;34.20;;;;;;5033665;28;20218;-70
2024/01/21 01:01:30;;;;;;;2.33;2.17;;;18.30;34.20;;;;;;5030501;28;20222;-71
2024/01/21 01:03:55;;;;;;;2.17;2.07;;;18.30;34.20;;;;;;5021282;28;20223;-71
2024/01/21 01:06:21;;;;;;;1.90;1.80;;;18.30;34.20;;;;;;5025868;28;20550;-71
2024/01/21 01:08:47;;;;;;;1.73;1.63;;;18.30;34.20;;;;;;5021292;28;20226;-71
2024/01/21 01:11:12;;;;;;;2.00;1.90;;;18.30;34.20;;;;;;5028273;28;20233;-71
2024/01/21 01:13:38;;;;;;;2.30;2.17;;;18.30;34.10;;;;;;5031131;28;20604;-71
2024/01/21 01:16:06;;;;;;;2.03;1.93;;;18.30;34.20;;;;;;5028286;28;20245;-71
2024/01/21 01:18:31;;;;;;;2.20;2.10;;;18.30;34.20;;;;;;5029215;28;20298;-71
2024/01/21 01:20:57;;;;;;;2.03;1.93;;;18.30;34.20;;;;;;5015139;28;20445;-71
2024/01/21 01:23:22;;;;;;;2.27;2.13;;;18.30;34.20;;;;;;5027640;28;20248;-71
2024/01/21 01:25:48;;;;;;;2.10;1.90;;;18.30;34.10;;;;;;5020585;28;20292;-71
2024/01/21 01:28:14;;;;;;;2.30;2.20;;;18.30;34.10;;;;;;5023156;28;20214;-71
2024/01/21 01:30:39;;;;;;;2.40;2.30;;;18.30;34.10;;;;;;5017404;28;20230;-70
2024/01/21 01:33:05;;;;;;;2.00;1.90;;;18.30;34.20;;;;;;5025050;28;20229;-70
2024/01/21 01:35:30;;;;;;;2.13;1.97;;;18.30;34.20;;;;;;5018669;28;20328;-70
2024/01/21 01:37:56;;;;;;;2.30;2.20;;;18.30;34.10;;;;;;5032616;28;20249;-70
2024/01/21 01:40:22;;;;;;;2.30;2.20;;;18.30;34.10;;;;;;5028290;28;20230;-71
2024/01/21 01:42:57;;;;;;;2.10;2.00;;;18.30;34.10;;;;;;5027636;28;20296;-70
2024/01/21 01:45:23;;;;;;;2.80;2.07;;;18.30;34.20;;;;;;5004065;28;20610;-70
2024/01/21 01:47:49;;;;;;;2.10;2.00;;;18.30;34.20;;;;;;5027771;28;20447;-70
2024/01/21 01:50:16;;;;;;;1.80;1.70;;;18.30;34.20;;;;;;5028780;28;20304;-70
2024/01/21 01:52:42;;;;;;;2.30;2.10;;;18.30;34.20;;;;;;5029826;28;20214;-70
2024/01/21 01:55:08;;;;;;;2.27;2.07;;;18.30;34.10;;;;;;5029576;28;21101;-70
2024/01/21 01:57:34;;;;;;;1.83;1.73;;;18.30;34.20;;;;;;5021956;28;20441;-71
2024/01/21 02:00:00;;;;;;;1.93;1.83;;;18.30;34.20;;;;;;5019536;28;20254;-71
2024/01/21 02:02:25;;;;;;;1.90;1.80;;;18.30;34.20;;;;;;5026187;28;20511;-70
2024/01/21 02:04:51;;;;;;;1.70;1.60;;;18.30;34.10;;;;;;5024109;28;20314;-70
2024/01/21 02:07:17;;;;;;;2.10;2.00;;;18.30;34.20;;;;;;5029367;28;20226;-71
2024/01/21 02:09:42;;;;;;;2.20;2.00;;;18.30;34.20;;;;;;5032895;28;20279;-71
2024/01/21 02:12:08;;;;;;;2.10;2.00;;;18.30;34.20;;;;;;5022201;28;20305;-70
2024/01/21 02:14:34;;;;;;;2.27;2.07;;;18.30;34.20;;;;;;5025815;28;20389;-70
2024/01/21 02:16:59;;;;;;;1.70;1.60;;;18.30;34.20;;;;;;5019449;28;20460;-70
2024/01/21 02:19:27;;;;;;;2.07;1.97;;;18.30;34.10;;;;;;5022635;28;20227;-70
2024/01/21 02:21:53;;;;;;;2.20;2.10;;;18.30;34.10;;;;;;5028884;28;20237;-71
2024/01/21 02:24:19;;;;;;;2.20;2.10;;;18.30;34.10;;;;;;5026197;28;20441;-71
2024/01/21 02:26:44;;;;;;;2.20;2.10;;;18.30;34.20;;;;;;5023822;28;20508;-71
2024/01/21 02:29:10;;;;;;;2.30;2.20;;;18.30;34.10;;;;;;5026469;28;20756;-71
2024/01/21 02:31:35;;;;;;;2.17;2.00;;;18.30;34.10;;;;;;5029987;28;20677;-70
2024/01/21 02:34:01;;;;;;;2.00;1.90;;;18.30;34.10;;;;;;5029618;28;20215;-70
2024/01/21 02:36:26;;;;;;;1.70;1.60;;;18.30;34.10;;;;;;5037838;28;20225;-70
2024/01/21 02:38:52;;;;;;;2.10;2.00;;;18.30;34.10;;;;;;5038235;28;20234;-70
2024/01/21 02:41:17;;;;;;;2.47;2.27;;;18.30;34.10;;;;;;5025439;28;20662;-71
2024/01/21 02:43:43;;;;;;;2.00;1.90;;;18.30;34.20;;;;;;5027811;28;20643;-71
2024/01/21 02:46:08;;;;;;;1.97;1.87;;;18.30;34.20;;;;;;5022848;28;20323;-71
2024/01/21 02:48:34;;;;;;;2.00;1.90;;;18.30;34.10;;;;;;5032975;28;20550;-71
2024/01/21 02:50:59;;;;;;;2.07;1.97;;;18.30;34.10;;;;;;5030698;28;20238;-71
2024/01/21 02:53:25;;;;;;;2.00;1.90;;;18.30;34.10;;;;;;5038958;28;20222;-71
2024/01/21 02:55:50;;;;;;;2.03;1.93;;;18.30;34.10;;;;;;5026237;28;20276;-72
2024/01/21 02:58:16;;;;;;;1.87;1.77;;;18.30;34.20;;;;;;5027941;28;20218;-72
2024/01/21 03:00:42;;;;;;;1.80;1.70;;;18.30;34.10;;;;;;5021102;28;20330;-71
2024/01/21 03:03:10;;;;;;;1.80;1.70;;;18.30;34.10;;;;;;5030955;28;21928;-71
2024/01/21 03:05:36;;;;;;;1.70;1.60;;;18.30;34.10;;;;;;5018887;28;20223;-71
2024/01/21 03:08:01;;;;;;;1.93;1.83;;;18.30;34.10;;;;;;5021298;28;20462;-71
2024/01/21 03:10:27;;;;;;;1.90;1.80;;;18.30;34.10;;;;;;5028110;28;20317;-71
2024/01/21 03:12:52;;;;;;;2.20;2.10;;;18.30;34.10;;;;;;5020728;28;20289;-71
2024/01/21 03:15:18;;;;;;;1.90;1.80;;;18.30;34.20;;;;;;5036657;28;20332;-71
2024/01/21 03:17:43;;;;;;;1.97;1.87;;;18.30;34.10;;;;;;5036563;28;20218;-71
2024/01/21 03:20:10;;;;;;;2.30;2.10;;;18.30;34.10;;;;;;5028677;28;20215;-71
2024/01/21 03:22:35;;;;;;;1.90;1.80;;;18.30;34.20;;;;;;5034610;28;20222;-71
2024/01/21 03:25:01;;;;;;;1.93;1.83;;;18.30;34.10;;;;;;5023212;28;20796;-71
2024/01/21 03:27:26;;;;;;;2.10;2.00;;;18.30;34.10;;;;;;5026989;28;20234;-71
2024/01/21 03:29:52;;;;;;;3.53;1.97;;;18.30;34.20;;;;;;5034825;28;20591;-71
2024/01/21 03:32:17;;;;;;;1.60;1.50;;;18.30;34.10;;;;;;5036142;28;20223;-71
2024/01/21 03:34:44;;;;;;;1.80;1.70;;;18.30;34.10;;;;;;5030453;28;20309;-71
2024/01/21 03:37:10;;;;;;;1.83;1.73;;;18.30;34.10;;;;;;5026409;28;20333;-71
2024/01/21 03:39:35;;;;;;;1.87;1.77;;;18.30;34.10;;;;;;5026276;28;20543;-71
2024/01/21 03:42:01;;;;;;;2.00;1.90;;;18.30;34.10;;;;;;5028357;28;20222;-71
2024/01/21 03:44:27;;;;;;;1.80;1.70;;;18.30;34.10;;;;;;5032959;28;20636;-71
2024/01/21 03:46:52;;;;;;;1.67;1.57;;;18.30;34.10;;;;;;5030775;28;20261;-71
2024/01/21 03:49:18;;;;;;;1.90;1.80;;;18.30;34.10;;;;;;5019361;28;20226;-71
2024/01/21 03:51:43;;;;;;;2.10;2.00;;;18.30;34.10;;;;;;5030225;28;20345;-72
2024/01/21 03:54:09;;;;;;;2.17;2.07;;;18.30;34.10;;;;;;5026715;28;20265;-71
2024/01/21 03:56:34;;;;;;;2.00;1.80;;;18.30;34.10;;;;;;5046246;28;20230;-71
2024/01/21 03:59:00;;;;;;;1.80;1.70;;;18.30;34.10;;;;;;5047764;28;20218;-71
2024/01/21 04:01:25;;;;;;;1.80;1.70;;;18.30;34.10;;;;;;5023223;28;20276;-70
2024/01/21 04:03:51;;;;;;;1.70;1.60;;;18.30;34.10;;;;;;5020636;28;20219;-71
2024/01/21 04:06:17;;;;;;;2.03;1.93;;;18.20;34.00;;;;;;5021402;28;20230;-70
2024/01/21 04:08:43;;;;;;;1.80;1.70;;;18.20;34.00;;;;;;5034447;28;20972;-70
2024/01/21 04:11:08;;;;;;;1.90;1.80;;;18.20;34.10;;;;;;5029646;28;20314;-71
2024/01/21 04:13:34;;;;;;;2.10;2.00;;;18.20;34.10;;;;;;5030434;28;20508;-70
2024/01/21 04:15:59;;;;;;;2.00;1.90;;;18.30;34.10;;;;;;5016074;28;20299;-70
2024/01/21 04:18:25;;;;;;;2.00;1.90;;;18.30;34.10;;;;;;5030830;28;20245;-70
2024/01/21 04:20:50;;;;;;;1.70;1.60;;;18.20;34.10;;;;;;5018188;28;20686;-70
2024/01/21 04:23:16;;;;;;;1.73;1.63;;;18.30;34.10;;;;;;5019919;28;20315;-70
2024/01/21 04:25:41;;;;;;;2.10;1.90;;;18.30;34.10;;;;;;5032017;28;20690;-70
2024/01/21 04:28:07;;;;;;;2.10;2.00;;;18.30;34.10;;;;;;5024174;28;20264;-70
2024/01/21 04:30:33;;;;;;;2.10;2.00;;;18.30;34.00;;;;;;5016246;28;20300;-70
2024/01/21 04:32:58;;;;;;;2.20;2.00;;;18.30;34.10;;;;;;5037951;28;20281;-70
2024/01/21 04:35:24;;;;;;;2.43;1.90;;;18.30;34.10;;;;;;5036164;28;20226;-70
2024/01/21 04:37:49;;;;;;;2.20;2.03;;;18.30;34.10;;;;;;5021446;28;20218;-70
2024/01/21 04:40:15;;;;;;;1.70;1.60;;;18.30;34.10;;;;;;5033206;28;20241;-70
2024/01/21 04:42:40;;;;;;;1.73;1.63;;;18.30;34.10;;;;;;5023919;28;20210;-73
2024/01/21 04:45:07;;;;;;;1.80;1.70;;;18.30;34.00;;;;;;5018392;28;20249;-69
2024/01/21 04:47:33;;;;;;;2.13;2.03;;;18.30;34.00;;;;;;5018078;28;20350;-69
2024/01/21 04:49:58;;;;;;;1.77;1.67;;;18.30;34.00;;;;;;5035158;28;20983;-70
2024/01/21 04:52:24;;;;;;;5.83;1.97;;;18.30;34.10;;;;;;5037340;28;20521;-70
2024/01/21 04:54:49;;;;;;;2.20;2.10;;;18.30;34.00;;;;;;5025034;28;20878;-70
2024/01/21 04:57:15;;;;;;;1.80;1.70;;;18.30;34.00;;;;;;5020041;28;20220;-70
2024/01/21 04:59:40;;;;;;;1.90;1.80;;;18.30;33.90;;;;;;5039463;28;20716;-70
2024/01/21 05:02:06;;;;;;;1.80;1.70;;;18.30;33.90;;;;;;5036543;28;20300;-70
2024/01/21 05:04:31;;;;;;;2.10;2.00;;;18.30;33.90;;;;;;5028094;28;20229;-69
2024/01/21 05:06:57;;;;;;;1.90;1.80;;;18.30;33.90;;;;;;5031204;28;20244;-70
2024/01/21 05:09:22;;;;;;;1.83;1.73;;;18.30;34.00;;;;;;5018458;28;20363;-70
2024/01/21 05:11:48;;;;;;;1.70;1.60;;;18.30;33.90;;;;;;5023236;28;22862;-69
2024/01/21 05:14:13;;;;;;;2.10;2.00;;;18.30;33.90;;;;;;5032148;28;20680;-69
2024/01/21 05:16:40;;;;;;;1.50;1.40;;;18.30;33.80;;;;;;5021162;28;20857;-70
2024/01/21 05:19:05;;;;;;;1.60;1.50;;;18.30;33.90;;;;;;5018722;28;20230;-69
2024/01/21 05:21:32;;;;;;;1.57;1.47;;;18.30;33.90;;;;;;5018915;28;20435;-69
2024/01/21 05:23:57;;;;;;;1.70;1.60;;;18.30;33.80;;;;;;5024221;28;20351;-69
2024/01/21 05:26:23;;;;;;;1.80;1.70;;;18.30;33.80;;;;;;5015896;28;20854;-70
2024/01/21 05:28:48;;;;;;;1.80;1.70;;;18.30;33.80;;;;;;5026217;28;20241;-70
2024/01/21 05:31:14;;;;;;;1.70;1.60;;;18.30;33.80;;;;;;5024904;28;20221;-69
2024/01/21 05:33:40;;;;;;;1.97;1.87;;;18.30;33.80;;;;;;5018962;28;20215;-69
2024/01/21 05:36:06;;;;;;;1.93;1.83;;;18.30;33.80;;;;;;5018575;28;20666;-69
2024/01/21 05:38:32;;;;;;;1.80;1.70;;;18.30;33.80;;;;;;5019470;28;20223;-69
2024/01/21 05:40:57;;;;;;;2.10;2.00;;;18.30;33.80;;;;;;5018293;28;20422;-69
2024/01/21 05:43:23;;;;;;;2.27;2.10;;;18.30;33.80;;;;;;5028317;28;20229;-69
2024/01/21 05:45:48;;;;;;;1.80;1.67;;;18.30;33.70;;;;;;5034745;28;20242;-70
2024/01/21 05:48:14;;;;;;;1.80;1.70;;;18.30;33.80;;;;;;5036156;28;20278;-69
2024/01/21 05:50:40;;;;;;;1.80;1.70;;;18.30;33.80;;;;;;5036262;28;20295;-68
2024/01/21 05:53:06;;;;;;;1.67;1.57;;;18.30;33.70;;;;;;5037709;28;20670;-69
2024/01/21 05:55:32;;;;;;;1.83;1.50;;;18.30;33.70;;;;;;5032483;28;20253;-69
2024/01/21 05:57:58;;;;;;;1.70;1.60;;;18.40;33.80;;;;;;5021860;28;20458;-69
2024/01/21 06:00:24;;;;;;;1.70;1.60;;;18.30;33.80;;;;;;5025240;28;20456;-70
2024/01/21 06:02:51;;;;;;;1.80;1.70;;;18.40;33.90;;;;;;5022355;28;20415;-69
2024/01/21 06:05:17;;;;;;;1.60;1.50;;;18.40;33.80;;;;;;5015434;28;20709;-69
2024/01/21 06:07:43;;;;;;;1.77;1.67;;;18.30;33.70;;;;;;5021437;28;20446;-69
2024/01/21 06:10:09;;;;;;;2.10;2.00;;;18.30;33.70;;;;;;5007513;28;20230;-70
2024/01/21 06:12:35;;;;;;;2.60;2.07;;;18.30;33.70;;;;;;5021677;28;20484;-69
2024/01/21 06:15:01;;;;;;;1.73;1.63;;;18.40;33.80;;;;;;5014640;28;20485;-70
2024/01/21 06:17:27;;;;;;;1.60;1.50;;;18.40;33.80;;;;;;5022839;28;20448;-70
2024/01/21 06:19:52;;;;;;;1.50;1.40;;;18.30;33.60;;;;;;5019723;28;20250;-70
2024/01/21 06:22:18;;;;;;;1.60;1.50;;;18.40;33.80;;;;;;5021442;28;20223;-70
2024/01/21 06:24:43;;;;;;;1.50;1.40;;;18.40;33.70;;;;;;5021743;28;20241;-70
2024/01/21 06:27:09;;;;;;;1.63;1.53;;;18.40;33.70;;;;;;5024501;28;20317;-69
2024/01/21 06:29:34;;;;;;;1.80;1.70;;;18.40;33.70;;;;;;5022352;28;20215;-70
2024/01/21 06:32:00;;;;;;;1.80;1.70;;;18.40;33.70;;;;;;5015576;28;20218;-70
2024/01/21 06:34:26;;;;;;;1.60;1.50;;;18.40;33.70;;;;;;5019142;28;20232;-70
2024/01/21 06:36:51;;;;;;;2.00;1.90;;;18.40;33.70;;;;;;5020313;28;20238;-70
2024/01/21 06:39:17;;;;;;;1.63;1.53;;;18.40;33.70;;;;;;5027686;28;20589;-70
2024/01/21 06:41:42;;;;;;;1.70;1.60;;;18.40;33.70;;;;;;5033574;28;20724;-70
2024/01/21 06:44:08;;;;;;;1.70;1.60;;;18.40;33.60;;;;;;5025784;28;20225;-70
2024/01/21 06:46:34;;;;;;;1.83;1.63;;;18.40;33.70;;;;;;5006281;28;20277;-70
2024/01/21 06:48:59;;;;;;;1.67;1.57;;;18.40;33.80;;;;;;5019579;28;20280;-69
2024/01/21 06:51:32;;;;;;;1.60;1.50;;;18.40;33.60;;;;;;5014446;28;20207;-70
2024/01/21 06:54:01;;;;;;;1.60;1.50;;;18.40;34.30;;;;;;5022806;28;20626;-70
2024/01/21 06:56:26;;;;;;;1.80;1.70;;;18.40;33.50;;;;;;5019410;28;20456;-70
2024/01/21 06:58:53;;;;;;;1.57;1.47;;;18.40;33.50;;;;;;5024782;28;20914;-70
2024/01/21 07:01:18;;;;;;;1.70;1.60;;;18.40;33.50;;;;;;5015841;28;20227;-71
2024/01/21 07:03:45;;;;;;;1.60;1.50;;;18.40;33.50;;;;;;5016199;28;20533;-70
2024/01/21 07:06:11;;;;;;;1.73;1.63;;;18.40;33.40;;;;;;5015443;28;20260;-72
2024/01/21 07:08:37;;;;;;;1.70;1.60;;;18.40;33.50;;;;;;5023904;28;20422;-74
2024/01/21 07:11:07;;;;;;;1.60;1.50;;;18.40;33.40;;;;;;5016498;28;20230;-73
2024/01/21 07:13:32;;;;;;;1.73;1.63;;;18.40;33.30;;;;;;5013472;28;20894;-73
2024/01/21 07:15:58;;;;;;;1.83;1.73;;;18.40;33.30;;;;;;5008332;28;20435;-67
2024/01/21 07:18:23;;;;;;;2.33;1.93;;;18.40;33.30;;;;;;5024984;28;20214;-68
2024/01/21 07:20:49;;;;;;;1.77;1.67;;;18.40;33.30;;;;;;5055608;28;20372;-68
2024/01/21 07:23:15;;;;;;;1.80;1.67;;;18.40;33.30;;;;;;5013929;28;20214;-68
2024/01/21 07:25:40;;;;;;;1.50;1.40;;;18.40;33.30;;;;;;5007560;28;20257;-69
2024/01/21 07:28:06;;;;;;;1.73;1.63;;;18.40;33.30;;;;;;5019388;28;20226;-68
2024/01/21 07:30:32;;;;;;;1.70;1.60;;;18.40;33.30;;;;;;5014329;28;20630;-68
2024/01/21 07:32:57;;;;;;;1.47;1.37;;;18.40;33.30;;;;;;5020824;28;20455;-69
2024/01/21 07:35:23;;;;;;;1.60;1.50;;;18.40;33.30;;;;;;5026779;28;20206;-68
2024/01/21 07:37:48;;;;;;;2.27;1.40;;;18.40;33.20;;;;;;5027106;28;20766;-67
2024/01/21 07:40:14;;;;;;;1.83;1.73;;;18.40;33.30;;;;;;5015800;28;20214;-69
2024/01/21 07:42:39;;;;;;;1.70;1.60;;;18.40;33.30;;;;;;5018450;28;20546;-72
2024/01/21 07:45:05;;;;;;;1.80;1.70;;;18.40;33.30;;;;;;5018401;28;20239;-75
2024/01/21 07:47:31;;;;;;;1.67;1.57;;;18.40;33.30;;;;;;5027400;28;20234;-68
2024/01/21 07:49:57;;;;;;;1.67;1.57;;;18.40;33.30;;;;;;5011800;28;20425;-69
2024/01/21 07:52:22;;;;;;;1.77;1.67;;;18.40;33.30;;;;;;5029166;28;20875;-69
2024/01/21 07:54:48;;;;;;;1.90;1.80;;;18.40;33.30;;;;;;5015968;28;20781;-69
2024/01/21 07:57:13;;;;;;;2.17;1.70;;;18.40;33.30;;;;;;5014295;28;20215;-71
2024/01/21 07:59:39;;;;;;;3.00;1.50;;;18.40;33.30;;;;;;5012702;28;20231;-68
2024/01/21 08:02:05;;;;;;;2.07;1.77;;;18.40;33.40;;;;;;5021071;28;20694;-69
2024/01/21 08:04:31;;;;;;;1.87;1.73;;;18.40;33.30;;;;;;5024849;28;20214;-68
2024/01/21 08:06:56;;;;;;;2.03;1.93;;;18.40;33.30;;;;;;5019967;28;20961;-67
2024/01/21 08:09:22;;;;;;;4.50;1.70;;;18.40;33.30;;;;;;5015875;28;20750;-68
2024/01/21 08:11:47;;;;;;;1.50;1.40;;;18.40;33.30;;;;;;5019923;28;20678;-68
2024/01/21 08:14:13;;;;;;;1.70;1.60;;;18.40;33.30;;;;;;5019702;28;20705;-68
2024/01/21 08:16:39;;;;;;;1.63;1.50;;;18.40;33.40;;;;;;5021702;28;20236;-67
2024/01/21 08:19:04;;;;;;;1.70;1.60;;;18.30;33.20;;;;;;5019346;28;20215;-67
2024/01/21 08:21:30;;;;;;;2.33;2.13;;;18.30;33.20;;;;;;5023194;28;20226;-67
2024/01/21 08:23:56;;;;;;;1.73;1.63;;;18.30;33.30;;;;;;5029770;28;20231;-67
2024/01/21 08:26:21;;;;;;;1.83;1.73;;;18.30;33.20;;;;;;5025941;28;20268;-66
2024/01/21 08:28:47;;;;;;;1.87;1.77;;;18.30;33.30;;;;;;5038936;28;20226;-66
2024/01/21 08:31:14;;;;;;;4.23;1.90;;;18.30;33.20;;;;;;5023074;28;20230;-67
2024/01/21 08:33:39;;;;;;;1.70;1.60;;;18.30;33.30;;;;;;5027852;28;20633;-67
2024/01/21 08:36:05;;;;;;;2.10;1.90;;;18.30;34.10;;;;;;5016191;28;20430;-66
2024/01/21 08:38:31;;;;;;;1.97;1.87;;;18.30;33.30;;;;;;5025195;28;20215;-67
2024/01/21 08:40:56;;;;;;;2.00;1.60;;;18.30;33.30;;;;;;5033292;28;20214;-67
2024/01/21 08:43:22;;;;;;;1.60;1.50;;;18.30;33.30;;;;;;5040028;28;20229;-67
2024/01/21 08:45:47;;;;;;;1.93;1.83;;;18.30;33.30;;;;;;5036588;28;20789;-66
2024/01/21 08:48:13;;;;;;;2.00;1.90;;;18.30;33.30;;;;;;5039463;28;21098;-67
2024/01/21 08:50:39;;;;;;;1.70;1.60;;;18.30;33.30;;;;;;5034733;28;20210;-67
2024/01/21 08:53:04;;;;;;;1.83;1.73;;;18.30;33.30;;;;;;5038892;28;20576;-67
2024/01/21 08:55:30;;;;;;;1.83;1.73;;;18.30;33.30;;;;;;5034775;28;20218;-67
2024/01/21 08:57:55;;;;;;;2.07;1.80;;;18.30;33.30;;;;;;5032992;28;20248;-67
2024/01/21 09:00:21;;;;;;;2.00;1.80;;;18.30;33.30;;;;;;5035971;28;20238;-67
2024/01/21 09:02:46;;;;;;;2.03;1.63;;;18.30;33.30;;;;;;5045620;28;20218;-67
2024/01/21 09:05:13;;;;;;;1.70;1.60;;;18.30;33.30;;;;;;5023029;28;20276;-68
2024/01/21 09:07:39;;;;;;;1.70;1.60;;;18.30;33.30;;;;;;5022939;28;20600;-67
2024/01/21 09:10:05;;;;;;;1.73;1.63;;;18.30;33.30;;;;;;5026752;28;20504;-67
2024/01/21 09:12:31;;;;;;;1.90;1.80;;;18.30;33.30;;;;;;5024152;28;20226;-67
2024/01/21 09:14:57;;;;;;;1.60;1.50;;;18.30;34.10;;;;;;5026492;28;20438;-67
2024/01/21 09:17:22;;;;;;;1.90;1.80;;;18.30;33.40;;;;;;5021005;28;20985;-67
2024/01/21 09:19:48;;;;;;;1.70;1.60;;;18.30;33.40;;;;;;5023662;28;20230;-67
2024/01/21 09:22:13;;;;;;;1.70;1.60;;;18.30;33.40;;;;;;5020632;28;21227;-67
2024/01/21 09:24:39;;;;;;;5.53;1.60;;;18.30;33.40;;;;;;5018927;28;20305;-66
2024/01/21 09:27:05;;;;;;;1.80;1.70;;;18.30;33.30;;;;;;5015307;28;20222;-67
2024/01/21 09:29:30;;;;;;;1.87;1.50;;;18.30;34.20;;;;;;5021572;28;21968;-67
2024/01/21 09:31:57;;;;;;;1.70;1.60;;;18.30;33.30;;;;;;5019564;28;20562;-67
2024/01/21 09:34:22;;;;;;;1.43;1.33;;;18.30;33.40;;;;;;5024746;28;20229;-67
2024/01/21 09:36:49;;;;;;;2.03;1.93;;;18.30;33.30;;;;;;5014719;28;21120;-66
2024/01/21 09:39:14;;;;;;;1.73;1.63;;;18.30;33.30;;;;;;5022108;28;20262;-66
2024/01/21 09:41:50;;;;;;;2.27;2.10;;;18.30;33.30;;;;;;5014344;28;20527;-67
2024/01/21 09:44:21;;;;;;;1.73;1.50;;;18.20;33.30;;;;;;5028088;28;20221;-67
2024/01/21 09:46:53;;;;;;;1.90;1.80;;;18.30;33.30;;;;;;5031669;28;20449;-67
2024/01/21 09:49:19;;;;;;;1.60;1.50;;;18.30;33.30;;;;;;5026678;28;20470;-66
2024/01/21 09:51:46;;;;;;;1.70;1.60;;;18.20;33.30;;;;;;5036611;28;20457;-66
2024/01/21 09:54:12;;;;;;;1.83;1.73;;;18.20;33.30;;;;;;5022753;28;20508;-66
2024/01/21 09:56:38;;;;;;;2.03;1.40;;;18.20;33.30;;;;;;5017239;28;20427;-67
2024/01/21 09:59:05;;;;;;;3.47;1.60;;;18.20;33.30;;;;;;5023086;28;20324;-67
2024/01/21 10:01:32;;;;;;;1.73;1.63;;;18.20;33.30;;;;;;5011604;28;20582;-66
2024/01/21 10:03:57;;;;;;;1.93;1.83;;;18.20;33.30;;;;;;5060502;28;20418;-67
2024/01/21 10:06:23;;;;;;;1.83;1.67;;;18.20;33.30;;;;;;5023884;28;20434;-66
2024/01/21 10:08:49;;;;;;;1.97;1.50;;;18.20;33.40;;;;;;5028312;28;20782;-67
2024/01/21 10:11:15;;;;;;;1.70;1.60;;;18.20;33.30;;;;;;5030001;28;20433;-66
2024/01/21 10:13:42;;;;;;;1.90;1.57;;;18.20;33.30;;;;;;5038838;28;20230;-67
2024/01/21 10:16:09;;;;;;;1.50;1.40;;;18.20;33.30;;;;;;5026864;28;20211;-67
2024/01/21 10:18:36;;;;;;;1.70;1.60;;;18.20;33.30;;;;;;5029875;28;20944;-67
2024/01/21 10:21:05;;;;;;;1.30;1.20;;;18.30;33.40;;;;;;5014429;28;20474;-67
2024/01/21 10:23:31;;;;;;;1.47;1.37;;;18.20;33.40;;;;;;5014044;28;20434;-66
2024/01/21 10:25:58;;;;;;;1.90;1.80;;;18.20;33.30;;;;;;5027808;28;20483;-67
2024/01/21 10:28:23;;;;;;;1.70;1.60;;;18.20;33.30;;;;;;5020182;28;20438;-67
2024/01/21 10:30:49;;;;;;;2.00;1.90;;;18.20;33.40;;;;;;5023956;28;20435;-67
2024/01/21 10:33:15;;;;;;;1.50;1.40;;;18.20;33.40;;;;;;5021471;28;20210;-67
2024/01/21 10:35:41;;;;;;;1.90;1.80;;;18.20;33.40;;;;;;5022081;28;20218;-67
2024/01/21 10:38:12;;;;;;;1.70;1.60;;;18.20;33.40;;;;;;5020586;28;20211;-67
2024/01/21 10:40:44;;;;;;;1.60;1.50;;;18.20;33.40;;;;;;5025506;28;21420;-67
2024/01/21 10:43:14;;;;;;;1.63;1.53;;;18.20;33.40;;;;;;5018825;28;20523;-67
2024/01/21 10:45:45;;;;;;;2.93;2.20;;;18.20;33.40;;;;;;5024709;28;20432;-67
2024/01/21 10:48:13;;;;;;;1.73;1.63;;;18.20;33.40;;;;;;5025366;28;21351;-67
2024/01/21 10:50:42;;;;;;;1.40;1.30;;;18.20;33.40;;;;;;5023373;28;20447;-67
2024/01/21 10:53:12;;;;;;;1.70;1.60;;;18.20;33.40;;;;;;5030318;28;20517;-67
2024/01/21 10:55:41;;;;;;;1.50;1.40;;;18.20;33.40;;;;;;5024140;28;20504;-67
2024/01/21 10:58:10;;;;;;;3.10;1.50;;;18.20;33.40;;;;;;5039189;28;21047;-68
2024/01/21 11:00:37;;;;;;;1.70;1.60;;;18.20;33.40;;;;;;5024636;28;20458;-67
2024/01/21 11:03:25;;;;;;;1.60;1.50;;;18.20;33.40;;;;;;5022504;28;20440;-67
2024/01/21 11:06:03;;;;;;;1.70;1.60;;;18.20;33.40;;;;;;5029511;28;20438;-67
2024/01/21 11:08:29;;;;;;;2.60;2.00;;;18.20;33.40;;;;;;5033702;28;20509;-67
2024/01/21 11:11:09;;;;;;;1.90;1.80;;;18.20;33.40;;;;;;5024793;28;20508;-67
2024/01/21 11:13:42;;;;;;;1.87;1.77;;;18.20;33.40;;;;;;5034056;28;20432;-67
2024/01/21 11:16:26;;;;;;;1.50;1.40;;;18.20;33.50;;;;;;5018938;28;20434;-68
2024/01/21 11:18:52;;;;;;;1.33;1.23;;;18.20;33.40;;;;;;5024877;28;20983;-68
2024/01/21 11:21:21;;;;;;;1.70;1.60;;;18.20;33.40;;;;;;5017299;28;20426;-68
2024/01/21 11:24:09;;;;;;;1.60;1.50;;;18.20;33.50;;;;;;5032518;28;20437;-68
2024/01/21 11:26:41;;;;;;;1.60;1.50;;;18.20;33.40;;;;;;5009828;28;20474;-69
2024/01/21 11:29:23;;;;;;;1.73;1.50;;;18.20;33.40;;;;;;5020516;28;20478;-68
2024/01/21 11:31:53;;;;;;;2.97;2.00;;;18.20;33.30;;;;;;5027746;28;20438;-69
2024/01/21 11:34:18;;;;;;;2.60;1.63;;;18.30;33.30;;;;;;5019305;28;20489;-69
2024/01/21 11:36:44;;;;;;;2.93;1.60;;;18.30;33.30;;;;;;5021935;28;20558;-69
2024/01/21 11:39:10;;;;;;;3.23;1.70;;;18.30;33.20;;;;;;5025525;28;20700;-69
2024/01/21 11:41:43;;;;;;;2.77;1.90;;;18.30;33.20;;;;;;5024241;28;20440;-69
2024/01/21 11:44:11;;;;;;;2.10;1.97;;;18.30;33.10;;;;;;5028680;28;20218;-69
2024/01/21 11:46:38;;;;;;;1.40;1.30;;;18.30;33.10;;;;;;5015620;28;21009;-68
2024/01/21 11:49:04;;;;;;;3.30;1.80;;;18.30;33.20;;;;;;5022990;28;20433;-68
2024/01/21 11:51:30;;;;;;;1.80;1.70;;;18.30;33.10;;;;;;5026547;28;20415;-68
2024/01/21 11:53:55;;;;;;;2.27;1.60;;;18.40;33.20;;;;;;5024150;28;20437;-68
2024/01/21 11:56:21;;;;;;;1.40;1.30;;;18.40;33.20;;;;;;5015712;28;20579;-68
2024/01/21 11:58:46;;;;;;;1.70;1.60;;;18.40;33.20;;;;;;5036545;28;20225;-68
2024/01/21 12:01:12;;;;;;;1.73;1.63;;;18.40;33.20;;;;;;5021064;28;20231;-69
2024/01/21 12:03:38;;;;;;;1.67;1.57;;;18.40;33.20;;;;;;5029787;28;20222;-69
2024/01/21 12:06:04;;;;;;;2.83;2.60;;;18.40;33.20;;;;;;5017670;28;20996;-68
2024/01/21 12:08:31;;;;;;;2.93;1.93;;;18.40;33.20;;;;;;5027055;28;20289;-68
2024/01/21 12:10:56;;;;;;;3.23;1.90;;;18.40;33.10;;;;;;5017071;28;21119;-68
2024/01/21 12:13:22;;;;;;;6.53;3.23;;;18.40;33.10;;;;;;5018085;28;20477;-68
2024/01/21 12:15:51;;;;;;;10.07;4.10;;;18.40;33.10;;;;;;5010438;28;20273;-69
2024/01/21 12:18:16;;;;;;;5.20;2.40;;;18.50;33.20;;;;;;5037071;28;20688;-68
2024/01/21 12:20:43;;;;;;;6.67;2.70;;;18.50;33.10;;;;;;5029326;28;20460;-68
2024/01/21 12:23:22;;;;;;;3.17;2.87;;;18.50;33.20;;;;;;5023962;28;20591;-68
2024/01/21 12:25:48;;;;;;;3.40;2.70;;;18.50;33.10;;;;;;5014600;28;20586;-68
2024/01/21 12:28:13;;;;;;;3.87;2.97;;;18.50;33.20;;;;;;5020215;28;20492;-68
2024/01/21 12:30:39;;;;;;;5.10;2.83;;;18.50;33.20;;;;;;5028786;28;20551;-67
2024/01/21 12:33:05;;;;;;;6.17;3.23;;;18.50;33.20;;;;;;5035966;28;20281;-67
2024/01/21 12:35:31;;;;;;;5.53;2.50;;;18.50;33.20;;;;;;5020276;28;20218;-67
2024/01/21 12:37:59;;;;;;;3.20;2.57;;;18.50;33.30;;;;;;5023351;28;20206;-67
2024/01/21 12:40:25;;;;;;;4.57;2.57;;;18.50;33.30;;;;;;5027634;28;20418;-67
2024/01/21 12:42:51;;;;;;;4.47;2.63;;;18.50;33.30;;;;;;5042516;28;20443;-66